.
WxDataArchive / Data Records for 2012-02-14
2012-02-13 February 2012 2012-02-15

Data Records for Tuesday, 14 February 2012

Time	Temp	Chill	HIndex	Humid	Dewpt	 Wind 	HiWind	WindDir	Rain 	Barom 
-----	----	-----	------	-----	-----	------	------	-------	-----	----- 
00:00	28.4	28.4	28.4	84	24.2	0	1	270	0.00	29.979 
00:05	28.4	28.4	28.4	85	24.5	0	1	270	0.00	29.979 
00:10	28.4	28.4	28.4	85	24.5	0	1	270	0.00	29.979 
00:15	28.4	28.4	28.4	86	24.8	0	1	270	0.00	29.974 
00:20	28.2	28.2	28.2	86	24.6	0	2	68	0.00	29.974 
00:25	28.2	28.2	28.2	87	24.8	0	1	68	0.00	29.974 
00:30	28.2	28.2	28.2	87	24.8	0	1	68	0.00	29.967 
00:35	28.2	28.2	28.2	88	25.1	0	1	68	0.00	29.967 
00:40	28.2	28.2	28.2	88	25.1	0	2	248	0.00	29.967 
00:45	28.1	28.1	28.1	88	25.0	0	2	248	0.00	29.964 
00:50	28.1	28.1	28.1	89	25.3	0	2	248	0.00	29.964 
00:55	28.1	28.1	28.1	89	25.3	0	2	248	0.00	29.964 
01:00	28.1	28.1	28.1	89	25.3	0	2	248	0.00	29.961 
01:05	28.1	28.1	28.1	90	25.6	0	0	---	0.00	29.961 
01:10	28.1	28.1	28.1	90	25.6	0	2	248	0.00	29.961 
01:15	28.1	28.1	28.1	90	25.6	0	1	248	0.00	29.959 
01:20	27.9	27.9	27.9	90	25.4	0	2	248	0.00	29.959 
01:25	27.9	27.9	27.9	90	25.4	1	3	248	0.00	29.959 
01:30	27.9	27.9	27.9	91	25.6	0	2	248	0.00	29.952 
01:35	27.9	27.9	27.9	91	25.6	0	2	248	0.00	29.952 
01:40	27.9	27.9	27.9	91	25.6	0	1	248	0.00	29.952 
01:45	27.9	27.9	27.9	91	25.6	0	2	248	0.00	29.947 
01:50	27.9	27.9	27.9	91	25.6	0	2	248	0.00	29.947 
01:55	27.9	27.9	27.9	91	25.6	0	1	248	0.00	29.947 
02:00	27.9	27.9	27.9	91	25.6	0	1	248	0.00	29.944 
02:05	27.9	27.9	27.9	91	25.6	0	1	248	0.00	29.944 
02:10	27.9	27.9	27.9	92	25.9	0	1	248	0.00	29.944 
02:15	27.9	27.9	27.9	92	25.9	0	0	---	0.00	29.938 
02:20	27.9	27.9	27.9	92	25.9	0	1	248	0.00	29.938 
02:25	27.9	27.9	27.9	92	25.9	0	0	---	0.00	29.938 
02:30	27.9	27.9	27.9	92	25.9	0	1	248	0.00	29.934 
02:35	28.1	28.1	28.1	92	26.1	0	1	248	0.00	29.934 
02:40	28.1	28.1	28.1	92	26.1	0	1	248	0.00	29.934 
02:45	28.1	28.1	28.1	92	26.1	0	1	248	0.00	29.931 
02:50	28.1	28.1	28.1	92	26.1	0	1	248	0.00	29.931 
02:55	28.1	28.1	28.1	92	26.1	0	2	248	0.00	29.931 
03:00	28.1	28.1	28.1	92	26.1	0	1	248	0.00	29.929 
03:05	28.1	28.1	28.1	92	26.1	0	1	248	0.00	29.929 
03:10	28.1	28.1	28.1	92	26.1	0	1	248	0.00	29.929 
03:15	28.1	28.1	28.1	92	26.1	0	1	248	0.00	29.920 
03:20	28.1	28.1	28.1	92	26.1	0	0	---	0.00	29.920 
03:25	28.1	28.1	28.1	92	26.1	0	1	248	0.00	29.920 
03:30	28.1	28.1	28.1	92	26.1	0	1	248	0.00	29.915 
03:35	28.1	28.1	28.1	92	26.1	0	1	248	0.00	29.915 
03:40	28.1	28.1	28.1	92	26.1	0	2	248	0.00	29.915 
03:45	28.1	28.1	28.1	92	26.1	0	0	---	0.00	29.913 
03:50	28.1	28.1	28.1	92	26.1	0	0	---	0.00	29.913 
03:55	28.1	28.1	28.1	92	26.1	0	0	---	0.00	29.913 
04:00	28.1	28.1	28.1	92	26.1	0	0	---	0.00	29.907 
04:05	28.1	28.1	28.1	92	26.1	0	1	248	0.00	29.907 
04:10	28.1	28.1	28.1	92	26.1	0	0	---	0.00	29.907 
04:15	28.1	28.1	28.1	92	26.1	0	0	---	0.00	29.902 
04:20	28.2	28.2	28.2	92	26.2	0	1	248	0.00	29.902 
04:25	28.2	28.2	28.2	92	26.2	0	1	248	0.00	29.902 
04:30	28.1	28.1	28.1	92	26.1	0	0	---	0.00	29.899 
04:35	28.2	28.2	28.2	92	26.2	0	0	---	0.00	29.899 
04:40	28.1	28.1	28.1	92	26.1	0	0	---	0.00	29.899 
04:45	28.1	28.1	28.1	92	26.1	0	0	---	0.00	29.897 
04:50	28.1	28.1	28.1	92	26.1	0	2	248	0.00	29.897 
04:55	28.1	28.1	28.1	92	26.1	0	1	248	0.00	29.897 
05:00	28.2	28.2	28.2	92	26.2	0	0	---	0.00	29.895 
05:05	28.2	28.2	28.2	92	26.2	0	0	---	0.00	29.895 
05:10	28.2	28.2	28.2	92	26.2	0	2	248	0.00	29.895 
05:15	28.2	28.2	28.2	92	26.2	0	2	248	0.00	29.894 
05:20	28.2	28.2	28.2	92	26.2	0	2	248	0.00	29.894 
05:25	28.2	28.2	28.2	92	26.2	0	1	248	0.00	29.894 
05:30	28.2	28.2	28.2	92	26.2	0	1	248	0.00	29.893 
05:35	28.2	28.2	28.2	92	26.2	0	1	248	0.00	29.893 
05:40	28.2	28.2	28.2	92	26.2	0	2	248	0.00	29.893 
05:45	28.4	28.4	28.4	92	26.4	0	1	248	0.00	29.890 
05:50	28.4	28.4	28.4	92	26.4	0	1	248	0.00	29.890 
05:55	28.4	28.4	28.4	92	26.4	0	0	---	0.00	29.890 
06:00	28.4	28.4	28.4	92	26.4	0	0	---	0.00	29.887 
06:05	28.4	28.4	28.4	92	26.4	0	0	---	0.00	29.887 
06:10	28.4	28.4	28.4	92	26.4	0	0	---	0.00	29.887 
06:15	28.4	28.4	28.4	92	26.4	0	0	---	0.00	29.888 
06:20	28.5	28.5	28.5	93	26.7	0	1	248	0.00	29.888 
06:25	28.5	28.5	28.5	93	26.7	0	0	---	0.00	29.888 
06:30	28.5	28.5	28.5	93	26.7	0	0	---	0.00	29.886 
06:35	28.5	28.5	28.5	93	26.7	0	0	---	0.00	29.886 
06:40	28.5	28.5	28.5	93	26.7	0	0	---	0.00	29.886 
06:45	28.5	28.5	28.5	93	26.7	0	0	---	0.00	29.885 
06:50	28.5	28.5	28.5	93	26.7	0	0	---	0.00	29.885 
06:55	28.7	28.7	28.7	93	26.9	0	1	248	0.00	29.885 
07:00	28.7	28.7	28.7	93	26.9	0	0	---	0.00	29.883 
07:05	28.7	28.7	28.7	93	26.9	0	0	---	0.00	29.883 
07:10	28.7	28.7	28.7	93	26.9	0	1	248	0.00	29.883 
07:15	28.7	28.7	28.7	93	26.9	0	0	---	0.00	29.885 
07:20	28.7	28.7	28.7	93	26.9	0	0	---	0.00	29.885 
07:25	28.7	28.7	28.7	93	26.9	0	1	248	0.00	29.885 
07:30	28.7	28.7	28.7	93	26.9	0	1	248	0.00	29.885 
07:35	28.7	28.7	28.7	93	26.9	0	0	---	0.00	29.885 
07:40	28.8	28.8	28.8	93	27.0	0	0	---	0.00	29.885 
07:45	28.8	28.8	28.8	93	27.0	0	0	---	0.00	29.885 
07:50	28.8	28.8	28.8	93	27.0	0	1	248	0.00	29.885 
07:55	28.8	28.8	28.8	93	27.0	0	1	248	0.00	29.885 
08:00	28.8	28.8	28.8	93	27.0	0	1	248	0.00	29.887 
08:05	29.0	29.0	29.0	93	27.2	0	0	---	0.00	29.887 
08:10	29.0	29.0	29.0	93	27.2	0	1	248	0.00	29.887 
08:15	29.0	29.0	29.0	93	27.2	0	0	---	0.00	29.898 
08:20	29.0	29.0	29.0	93	27.2	0	0	---	0.00	29.898 
08:25	29.1	29.1	29.1	93	27.3	0	0	---	0.00	29.898 
08:30	29.1	29.1	29.1	93	27.3	0	0	---	0.00	29.900 
08:35	29.1	29.1	29.1	93	27.3	0	0	---	0.00	29.900 
08:40	29.3	29.3	29.3	93	27.5	0	1	248	0.00	29.900 
08:45	29.3	29.3	29.3	93	27.5	0	0	---	0.00	29.900 
08:50	29.4	29.4	29.4	93	27.6	0	0	---	0.00	29.900 
08:55	29.5	29.5	29.5	93	27.7	0	0	---	0.00	29.900 
09:00	29.7	29.7	29.7	93	27.9	0	0	---	0.00	29.899 
09:05	29.8	29.8	29.8	93	28.0	0	0	---	0.00	29.899 
09:10	29.8	29.8	29.8	93	28.0	0	0	---	0.00	29.899 
09:15	30.0	30.0	30.0	93	28.2	0	1	248	0.00	29.896 
09:20	30.1	30.1	30.1	93	28.3	0	1	248	0.00	29.896 
09:25	30.1	30.1	30.1	93	28.3	0	2	248	0.00	29.896 
09:30	30.3	30.3	30.3	93	28.5	0	2	248	0.00	29.895 
09:35	30.4	30.4	30.4	93	28.6	0	3	338	0.00	29.895 
09:40	30.6	30.6	30.6	93	28.8	0	2	338	0.00	29.895 
09:45	30.6	30.6	30.6	93	28.8	0	2	338	0.00	29.886 
09:50	30.7	30.7	30.7	92	28.7	0	1	338	0.00	29.886 
09:55	31.0	31.0	31.0	92	29.0	0	1	338	0.00	29.886 
10:00	31.2	31.2	31.2	92	29.2	0	1	202	0.00	29.888 
10:05	31.3	31.3	31.3	92	29.3	0	2	202	0.00	29.888 
10:10	31.6	31.6	31.6	92	29.5	0	2	225	0.00	29.888 
10:15	31.8	31.8	31.8	92	29.7	0	1	225	0.00	29.898 
10:20	31.9	31.9	31.9	92	29.8	1	3	225	0.00	29.898 
10:25	31.9	31.9	31.9	92	29.8	1	3	225	0.00	29.898 
10:30	31.9	31.9	31.9	91	29.6	0	2	225	0.00	29.900 
10:35	32.1	32.1	32.1	91	29.8	0	3	248	0.00	29.900 
10:40	32.2	32.2	32.2	91	29.9	0	2	248	0.00	29.900 
10:45	32.4	32.4	32.4	90	29.8	0	3	248	0.00	29.899 
10:50	32.5	32.5	32.5	90	29.9	0	2	248	0.00	29.899 
10:55	32.5	32.5	32.5	90	29.9	0	1	248	0.00	29.899 
11:00	32.7	32.7	32.7	89	29.8	0	2	248	0.00	29.894 
11:05	32.7	32.7	32.7	89	29.8	1	2	248	0.00	29.894 
11:10	32.8	32.8	32.8	88	29.6	0	2	248	0.00	29.894 
11:15	32.9	32.9	32.9	88	29.7	1	3	248	0.00	29.897 
11:20	32.9	32.9	32.9	88	29.7	0	2	248	0.00	29.897 
11:25	33.2	33.2	33.2	88	30.0	0	2	248	0.00	29.897 
11:30	33.1	33.1	33.1	87	29.7	1	4	248	0.00	29.899 
11:35	33.1	33.1	33.1	87	29.7	0	4	248	0.00	29.899 
11:40	33.1	33.1	33.1	86	29.4	0	2	248	0.01	29.899 
11:45	33.1	33.1	33.1	86	29.4	0	2	248	0.00	29.898 
11:50	33.2	33.2	33.2	86	29.5	1	3	248	0.00	29.898 
11:55	33.2	33.2	33.2	85	29.2	1	2	248	0.01	29.898 
12:00	33.2	33.2	33.2	85	29.2	1	2	248	0.00	29.899 
12:05	33.2	33.2	33.2	85	29.2	1	4	248	0.00	29.899 
12:10	33.4	33.4	33.4	85	29.4	1	6	248	0.00	29.899 
12:15	33.4	33.4	33.4	84	29.1	1	3	248	0.00	29.895 
12:20	33.4	33.4	33.4	84	29.1	0	2	248	0.01	29.895 
12:25	33.5	33.5	33.5	84	29.2	1	2	248	0.00	29.895 
12:30	33.7	33.7	33.7	84	29.4	1	4	248	0.00	29.885 
12:35	33.7	33.7	33.7	83	29.1	1	5	248	0.00	29.885 
12:40	33.7	33.7	33.7	83	29.1	1	4	248	0.00	29.885 
12:45	33.5	33.5	33.5	82	28.6	2	5	248	0.01	29.888 
12:50	33.5	33.5	33.5	83	28.9	1	3	270	0.00	29.888 
12:55	33.5	33.5	33.5	83	28.9	1	2	270	0.00	29.888 
13:00	33.5	33.5	33.5	83	28.9	1	2	270	0.00	29.883 
13:05	33.5	33.5	33.5	83	28.9	1	3	270	0.00	29.883 
13:10	33.5	33.5	33.5	82	28.6	1	4	248	0.01	29.883 
13:15	33.7	33.7	33.7	83	29.1	1	2	248	0.00	29.887 
13:20	33.8	33.8	33.8	83	29.2	1	3	248	0.00	29.887 
13:25	33.7	33.7	33.7	82	28.8	1	2	248	0.00	29.887 
13:30	33.7	33.7	33.7	82	28.8	1	5	248	0.00	29.885 
13:35	33.8	33.8	33.8	82	28.9	1	3	225	0.00	29.885 
13:40	34.0	34.0	34.0	82	29.1	0	3	225	0.00	29.885 
13:45	34.0	34.0	34.0	82	29.1	0	3	225	0.01	29.885 
13:50	34.1	34.1	34.1	82	29.2	1	3	225	0.00	29.885 
13:55	33.8	33.8	33.8	81	28.6	1	2	225	0.00	29.885 
14:00	33.8	33.8	33.8	81	28.6	1	3	225	0.00	29.884 
14:05	33.7	33.7	33.7	81	28.5	1	3	225	0.00	29.884 
14:10	33.7	33.7	33.7	81	28.5	1	3	225	0.01	29.884 
14:15	33.7	33.7	33.7	82	28.8	1	2	225	0.00	29.883 
14:20	33.8	33.8	33.8	81	28.6	1	2	225	0.00	29.883 
14:25	33.8	33.8	33.8	82	28.9	0	2	225	0.00	29.883 
14:30	34.0	34.0	34.0	82	29.1	0	2	225	0.00	29.884 
14:35	34.0	34.0	34.0	81	28.8	1	2	225	0.01	29.884 
14:40	33.8	33.8	33.8	81	28.6	1	2	225	0.00	29.884 
14:45	33.8	33.8	33.8	81	28.6	1	2	225	0.00	29.885 
14:50	33.8	33.8	33.8	81	28.6	1	3	225	0.00	29.885 
14:55	33.8	33.8	33.8	82	28.9	1	3	225	0.00	29.885 
15:00	33.8	33.8	33.8	82	28.9	2	4	270	0.01	29.895 
15:05	33.7	33.7	33.7	82	28.8	1	3	270	0.00	29.895 
15:10	33.7	33.7	33.7	82	28.8	2	4	270	0.00	29.895 
15:15	33.7	33.7	33.7	82	28.8	1	3	270	0.00	29.894 
15:20	33.5	33.5	33.5	83	28.9	1	3	248	0.00	29.894 
15:25	33.7	33.7	33.7	83	29.1	1	2	248	0.00	29.894 
15:30	33.7	33.7	33.7	83	29.1	1	3	248	0.01	29.898 
15:35	33.7	33.7	33.7	83	29.1	1	3	248	0.00	29.898 
15:40	33.8	33.8	33.8	82	28.9	1	3	248	0.00	29.898 
15:45	33.7	33.7	33.7	82	28.8	1	4	270	0.00	29.901 
15:50	33.7	33.7	33.7	82	28.8	1	3	248	0.00	29.901 
15:55	33.7	33.7	33.7	82	28.8	1	5	248	0.00	29.901 
16:00	33.7	33.7	33.7	82	28.8	2	6	248	0.00	29.911 
16:05	33.7	33.7	33.7	82	28.8	1	3	225	0.00	29.911 
16:10	33.7	33.7	33.7	81	28.5	1	3	248	0.00	29.911 
16:15	33.5	33.5	33.5	81	28.3	1	3	248	0.01	29.914 
16:20	33.5	33.5	33.5	82	28.6	1	2	248	0.00	29.914 
16:25	33.5	33.5	33.5	82	28.6	1	2	248	0.00	29.914 
16:30	33.4	33.4	33.4	82	28.5	2	5	248	0.00	29.916 
16:35	33.4	33.4	33.4	82	28.5	1	3	270	0.00	29.916 
16:40	33.2	33.2	33.2	83	28.6	1	2	248	0.00	29.916 
16:45	33.2	33.2	33.2	83	28.6	1	4	248	0.00	29.929 
16:50	33.2	33.2	33.2	83	28.6	1	3	248	0.00	29.929 
16:55	33.1	33.1	33.1	84	28.8	1	3	225	0.00	29.929 
17:00	33.1	33.1	33.1	84	28.8	1	4	225	0.00	29.932 
17:05	32.9	32.9	32.9	84	28.6	2	3	248	0.00	29.932 
17:10	32.9	32.9	32.9	84	28.6	1	3	270	0.00	29.932 
17:15	32.9	32.9	32.9	84	28.6	1	3	270	0.00	29.935 
17:20	32.8	32.8	32.8	84	28.5	1	3	248	0.00	29.935 
17:25	32.8	32.8	32.8	85	28.8	0	3	248	0.00	29.935 
17:30	32.8	32.8	32.8	85	28.8	1	3	248	0.00	29.945 
17:35	32.7	32.7	32.7	85	28.7	1	3	248	0.00	29.945 
17:40	32.7	32.7	32.7	86	29.0	0	2	248	0.00	29.945 
17:45	32.7	32.7	32.7	86	29.0	0	2	248	0.00	29.948 
17:50	32.5	32.5	32.5	86	28.8	0	1	248	0.00	29.948 
17:55	32.5	32.5	32.5	87	29.1	0	2	248	0.00	29.948 
18:00	32.5	32.5	32.5	87	29.1	1	3	248	0.00	29.956 
18:05	32.4	32.4	32.4	87	29.0	1	4	248	0.00	29.956 
18:10	32.4	32.4	32.4	88	29.3	0	2	248	0.00	29.956 
18:15	32.2	32.2	32.2	88	29.1	1	2	248	0.00	29.963 
18:20	32.2	32.2	32.2	88	29.1	0	2	248	0.00	29.963 
18:25	32.2	32.2	32.2	88	29.1	0	2	248	0.00	29.963 
18:30	32.2	32.2	32.2	88	29.1	1	3	248	0.00	29.974 
18:35	32.2	32.2	32.2	88	29.1	0	2	248	0.00	29.974 
18:40	32.2	32.2	32.2	88	29.1	1	3	248	0.00	29.974 
18:45	32.2	32.2	32.2	88	29.1	1	4	248	0.00	29.981 
18:50	32.2	32.2	32.2	88	29.1	0	4	248	0.00	29.981 
18:55	32.2	32.2	32.2	88	29.1	0	2	248	0.00	29.981 
19:00	32.2	32.2	32.2	88	29.1	0	2	248	0.00	29.990 
19:05	32.2	32.2	32.2	88	29.1	1	3	248	0.00	29.990 
19:10	32.2	32.2	32.2	88	29.1	0	1	270	0.00	29.990 
19:15	32.2	32.2	32.2	88	29.1	0	2	270	0.00	29.996 
19:20	32.2	32.2	32.2	88	29.1	0	2	270	0.00	29.996 
19:25	32.2	32.2	32.2	88	29.1	1	4	270	0.00	29.996 
19:30	32.2	32.2	32.2	88	29.1	0	2	248	0.00	30.006 
19:35	32.2	32.2	32.2	88	29.1	0	3	248	0.00	30.006 
19:40	32.2	32.2	32.2	88	29.1	0	2	248	0.00	30.006 
19:45	32.2	32.2	32.2	88	29.1	1	2	248	0.00	30.011 
19:50	32.2	32.2	32.2	88	29.1	0	1	248	0.00	30.011 
19:55	32.4	32.4	32.4	88	29.3	0	2	248	0.00	30.011 
20:00	32.4	32.4	32.4	88	29.3	0	2	248	0.00	30.016 
20:05	32.4	32.4	32.4	88	29.3	0	2	248	0.00	30.016 
20:10	32.4	32.4	32.4	88	29.3	1	2	248	0.00	30.016 
20:15	32.4	32.4	32.4	87	29.0	1	3	248	0.00	30.019 
20:20	32.4	32.4	32.4	87	29.0	1	3	248	0.00	30.019 
20:25	32.4	32.4	32.4	87	29.0	1	2	248	0.00	30.019 
20:30	32.4	32.4	32.4	87	29.0	1	4	248	0.00	30.019 
20:35	32.4	32.4	32.4	87	29.0	1	3	248	0.00	30.019 
20:40	32.4	32.4	32.4	87	29.0	1	2	248	0.00	30.019 
20:45	32.4	32.4	32.4	87	29.0	1	2	248	0.00	30.025 
20:50	32.4	32.4	32.4	87	29.0	1	2	248	0.00	30.025 
20:55	32.5	32.5	32.5	86	28.8	1	4	248	0.00	30.025 
21:00	32.5	32.5	32.5	86	28.8	0	2	248	0.00	30.032 
21:05	32.5	32.5	32.5	86	28.8	1	3	225	0.00	30.032 
21:10	32.5	32.5	32.5	85	28.5	1	3	248	0.00	30.032 
21:15	32.5	32.5	32.5	85	28.5	1	2	248	0.00	30.038 
21:20	32.5	32.5	32.5	84	28.2	1	3	248	0.00	30.038 
21:25	32.5	32.5	32.5	84	28.2	0	2	248	0.00	30.038 
21:30	32.7	32.7	32.7	83	28.1	1	3	248	0.00	30.040 
21:35	32.7	32.7	32.7	83	28.1	1	3	248	0.00	30.040 
21:40	32.7	32.7	32.7	82	27.8	1	3	248	0.00	30.040 
21:45	32.8	32.8	32.8	81	27.6	1	3	248	0.00	30.047 
21:50	32.8	32.8	32.8	81	27.6	1	3	248	0.00	30.047 
21:55	32.8	32.8	32.8	81	27.6	1	3	248	0.00	30.047 
22:00	32.8	32.8	32.8	81	27.6	1	2	248	0.00	30.054 
22:05	32.8	32.8	32.8	81	27.6	1	3	248	0.00	30.054 
22:10	32.8	32.8	32.8	81	27.6	1	2	248	0.00	30.054 
22:15	32.9	32.9	32.9	81	27.7	1	3	248	0.00	30.055 
22:20	32.9	32.9	32.9	81	27.7	1	3	248	0.00	30.055 
22:25	32.9	32.9	32.9	81	27.7	0	2	248	0.00	30.055 
22:30	32.9	32.9	32.9	81	27.7	1	2	248	0.01	30.064 
22:35	32.9	32.9	32.9	81	27.7	1	2	248	0.00	30.064 
22:40	32.9	32.9	32.9	81	27.7	0	2	248	0.00	30.064 
22:45	32.9	32.9	32.9	81	27.7	0	3	248	0.00	30.065 
22:50	32.9	32.9	32.9	81	27.7	1	3	248	0.00	30.065 
22:55	32.9	32.9	32.9	81	27.7	0	2	248	0.00	30.065 
23:00	32.9	32.9	32.9	80	27.4	0	2	248	0.00	30.068 
23:05	32.9	32.9	32.9	80	27.4	0	2	248	0.00	30.068 
23:10	32.9	32.9	32.9	80	27.4	0	2	248	0.00	30.068 
23:15	32.9	32.9	32.9	80	27.4	0	1	248	0.00	30.073 
23:20	32.9	32.9	32.9	80	27.4	0	1	248	0.00	30.073 
23:25	32.9	32.9	32.9	81	27.7	0	1	248	0.00	30.073 
23:30	32.9	32.9	32.9	81	27.7	0	0	---	0.00	30.082 
23:35	32.9	32.9	32.9	81	27.7	0	2	248	0.00	30.082 
23:40	32.9	32.9	32.9	81	27.7	0	1	248	0.00	30.082 
23:45	32.8	32.8	32.8	81	27.6	0	0	---	0.00	30.083 
23:50	32.8	32.8	32.8	81	27.6	0	1	248	0.00	30.083 
23:55	32.8	32.8	32.8	81	27.6	0	0	---	0.00	30.083 

CoCoRaHS
IN-AL-39
A2 Web Hosting
Creative Commons License
GoDaddy
search engine by freefind advanced

loaded 2018-11-18 12:13:29 • last modified 2010-11-18 10:43:29
Privacy PolicyDisclaimer
• wx.awcolley.com is powered by PmWiki v.2002016 •
• all content (unless otherwise noted) © 2018 A W Colley